sensor_id;sensor_type;location;lat;lon;timestamp;P1;durP1;ratioP1;P2;durP2;ratioP2
28078;SDS011;15388;42.238;24.684;2023-03-01T00:02:11;7.72;;;5.30;;
28078;SDS011;15388;42.238;24.684;2023-03-01T00:04:36;10.75;;;5.85;;
28078;SDS011;15388;42.238;24.684;2023-03-01T00:07:02;7.65;;;4.82;;
28078;SDS011;15388;42.238;24.684;2023-03-01T00:09:27;6.40;;;4.68;;
28078;SDS011;15388;42.238;24.684;2023-03-01T00:11:52;5.78;;;4.40;;
28078;SDS011;15388;42.238;24.684;2023-03-01T00:14:17;6.00;;;3.67;;
28078;SDS011;15388;42.238;24.684;2023-03-01T00:16:43;5.57;;;3.83;;
28078;SDS011;15388;42.238;24.684;2023-03-01T00:19:13;3.22;;;2.80;;
28078;SDS011;15388;42.238;24.684;2023-03-01T00:21:38;4.00;;;2.97;;
28078;SDS011;15388;42.238;24.684;2023-03-01T00:24:04;3.38;;;2.65;;
28078;SDS011;15388;42.238;24.684;2023-03-01T00:26:29;3.55;;;2.65;;
28078;SDS011;15388;42.238;24.684;2023-03-01T00:28:54;5.07;;;2.97;;
28078;SDS011;15388;42.238;24.684;2023-03-01T00:31:22;3.28;;;2.67;;
28078;SDS011;15388;42.238;24.684;2023-03-01T00:33:48;3.55;;;2.80;;
28078;SDS011;15388;42.238;24.684;2023-03-01T00:36:17;4.30;;;3.33;;
28078;SDS011;15388;42.238;24.684;2023-03-01T00:38:43;3.75;;;3.20;;
28078;SDS011;15388;42.238;24.684;2023-03-01T00:41:10;3.08;;;2.80;;
28078;SDS011;15388;42.238;24.684;2023-03-01T00:43:36;4.70;;;2.70;;
28078;SDS011;15388;42.238;24.684;2023-03-01T00:46:06;3.13;;;2.77;;
28078;SDS011;15388;42.238;24.684;2023-03-01T00:48:32;2.45;;;1.98;;
28078;SDS011;15388;42.238;24.684;2023-03-01T00:51:03;2.88;;;2.35;;
28078;SDS011;15388;42.238;24.684;2023-03-01T00:53:29;2.40;;;1.95;;
28078;SDS011;15388;42.238;24.684;2023-03-01T00:55:56;2.85;;;2.03;;
28078;SDS011;15388;42.238;24.684;2023-03-01T00:58:21;3.97;;;2.15;;
28078;SDS011;15388;42.238;24.684;2023-03-01T01:00:47;3.63;;;2.80;;
28078;SDS011;15388;42.238;24.684;2023-03-01T01:03:12;3.83;;;2.50;;
28078;SDS011;15388;42.238;24.684;2023-03-01T01:05:39;3.50;;;2.58;;
28078;SDS011;15388;42.238;24.684;2023-03-01T01:08:04;3.50;;;2.70;;
28078;SDS011;15388;42.238;24.684;2023-03-01T01:10:29;3.50;;;2.50;;
28078;SDS011;15388;42.238;24.684;2023-03-01T01:12:54;3.58;;;2.25;;
28078;SDS011;15388;42.238;24.684;2023-03-01T01:15:20;4.40;;;2.47;;
28078;SDS011;15388;42.238;24.684;2023-03-01T01:17:45;4.72;;;2.65;;
28078;SDS011;15388;42.238;24.684;2023-03-01T01:20:11;4.15;;;2.80;;
28078;SDS011;15388;42.238;24.684;2023-03-01T01:22:36;4.43;;;2.78;;
28078;SDS011;15388;42.238;24.684;2023-03-01T01:25:01;3.60;;;2.63;;
28078;SDS011;15388;42.238;24.684;2023-03-01T01:27:26;5.00;;;2.97;;
28078;SDS011;15388;42.238;24.684;2023-03-01T01:29:55;5.72;;;2.83;;
28078;SDS011;15388;42.238;24.684;2023-03-01T01:32:20;3.70;;;2.42;;
28078;SDS011;15388;42.238;24.684;2023-03-01T01:34:45;4.45;;;3.33;;
28078;SDS011;15388;42.238;24.684;2023-03-01T01:37:12;4.35;;;3.22;;
28078;SDS011;15388;42.238;24.684;2023-03-01T01:39:38;5.97;;;3.37;;
28078;SDS011;15388;42.238;24.684;2023-03-01T01:42:03;6.03;;;3.63;;
28078;SDS011;15388;42.238;24.684;2023-03-01T01:44:28;4.25;;;3.10;;
28078;SDS011;15388;42.238;24.684;2023-03-01T01:47:01;4.05;;;3.28;;
28078;SDS011;15388;42.238;24.684;2023-03-01T01:51:57;4.80;;;2.78;;
28078;SDS011;15388;42.238;24.684;2023-03-01T01:54:24;3.97;;;2.05;;
28078;SDS011;15388;42.238;24.684;2023-03-01T01:57:00;3.30;;;2.55;;
28078;SDS011;15388;42.238;24.684;2023-03-01T01:59:29;3.78;;;2.88;;
28078;SDS011;15388;42.238;24.684;2023-03-01T02:01:55;3.42;;;2.60;;
28078;SDS011;15388;42.238;24.684;2023-03-01T02:04:22;3.65;;;3.10;;
28078;SDS011;15388;42.238;24.684;2023-03-01T02:06:49;2.78;;;2.42;;
28078;SDS011;15388;42.238;24.684;2023-03-01T02:09:16;3.20;;;2.58;;
28078;SDS011;15388;42.238;24.684;2023-03-01T02:11:43;2.80;;;2.35;;
28078;SDS011;15388;42.238;24.684;2023-03-01T02:14:09;3.42;;;2.40;;
28078;SDS011;15388;42.238;24.684;2023-03-01T02:16:34;4.20;;;2.40;;
28078;SDS011;15388;42.238;24.684;2023-03-01T02:19:00;2.75;;;2.00;;
28078;SDS011;15388;42.238;24.684;2023-03-01T02:21:35;3.65;;;2.90;;
28078;SDS011;15388;42.238;24.684;2023-03-01T02:24:24;2.88;;;2.50;;
28078;SDS011;15388;42.238;24.684;2023-03-01T02:26:54;2.60;;;2.40;;
28078;SDS011;15388;42.238;24.684;2023-03-01T02:29:20;7.70;;;3.00;;
28078;SDS011;15388;42.238;24.684;2023-03-01T02:31:46;4.80;;;3.05;;
28078;SDS011;15388;42.238;24.684;2023-03-01T02:34:13;9.70;;;5.18;;
28078;SDS011;15388;42.238;24.684;2023-03-01T02:36:39;5.03;;;3.63;;
28078;SDS011;15388;42.238;24.684;2023-03-01T02:39:06;3.33;;;2.55;;
28078;SDS011;15388;42.238;24.684;2023-03-01T02:41:35;5.75;;;2.97;;
28078;SDS011;15388;42.238;24.684;2023-03-01T02:44:01;3.92;;;3.08;;
28078;SDS011;15388;42.238;24.684;2023-03-01T02:46:26;6.03;;;2.78;;
28078;SDS011;15388;42.238;24.684;2023-03-01T02:48:53;3.60;;;2.65;;
28078;SDS011;15388;42.238;24.684;2023-03-01T02:51:24;7.38;;;3.28;;
28078;SDS011;15388;42.238;24.684;2023-03-01T02:56:16;3.92;;;3.05;;
28078;SDS011;15388;42.238;24.684;2023-03-01T02:58:43;3.40;;;3.00;;
28078;SDS011;15388;42.238;24.684;2023-03-01T03:01:16;9.05;;;3.30;;
28078;SDS011;15388;42.238;24.684;2023-03-01T03:03:42;13.13;;;10.05;;
28078;SDS011;15388;42.238;24.684;2023-03-01T03:06:07;13.25;;;9.88;;
28078;SDS011;15388;42.238;24.684;2023-03-01T03:08:33;16.42;;;11.57;;
28078;SDS011;15388;42.238;24.684;2023-03-01T03:10:58;21.10;;;12.38;;
28078;SDS011;15388;42.238;24.684;2023-03-01T03:13:23;22.23;;;14.93;;
28078;SDS011;15388;42.238;24.684;2023-03-01T03:15:53;18.75;;;12.65;;
28078;SDS011;15388;42.238;24.684;2023-03-01T03:18:19;12.45;;;10.00;;
28078;SDS011;15388;42.238;24.684;2023-03-01T03:20:44;7.13;;;5.10;;
28078;SDS011;15388;42.238;24.684;2023-03-01T03:23:10;8.13;;;6.40;;
28078;SDS011;15388;42.238;24.684;2023-03-01T03:25:35;7.78;;;6.05;;
28078;SDS011;15388;42.238;24.684;2023-03-01T03:28:03;4.72;;;4.03;;
28078;SDS011;15388;42.238;24.684;2023-03-01T03:30:34;3.50;;;3.20;;
28078;SDS011;15388;42.238;24.684;2023-03-01T03:33:00;4.40;;;3.90;;
28078;SDS011;15388;42.238;24.684;2023-03-01T03:35:29;4.93;;;3.60;;
28078;SDS011;15388;42.238;24.684;2023-03-01T03:37:55;5.82;;;4.07;;
28078;SDS011;15388;42.238;24.684;2023-03-01T03:40:27;5.88;;;4.00;;
28078;SDS011;15388;42.238;24.684;2023-03-01T03:42:53;4.40;;;3.38;;
28078;SDS011;15388;42.238;24.684;2023-03-01T03:45:19;3.45;;;2.88;;
28078;SDS011;15388;42.238;24.684;2023-03-01T03:47:44;3.70;;;2.97;;
28078;SDS011;15388;42.238;24.684;2023-03-01T03:50:13;5.97;;;3.95;;
28078;SDS011;15388;42.238;24.684;2023-03-01T03:52:39;4.68;;;3.22;;
28078;SDS011;15388;42.238;24.684;2023-03-01T03:55:05;5.45;;;3.50;;
28078;SDS011;15388;42.238;24.684;2023-03-01T03:57:34;8.93;;;4.55;;
28078;SDS011;15388;42.238;24.684;2023-03-01T03:59:59;5.85;;;4.00;;
28078;SDS011;15388;42.238;24.684;2023-03-01T04:02:25;7.07;;;4.43;;
28078;SDS011;15388;42.238;24.684;2023-03-01T04:04:50;9.35;;;5.30;;
28078;SDS011;15388;42.238;24.684;2023-03-01T04:07:16;7.60;;;5.63;;
28078;SDS011;15388;42.238;24.684;2023-03-01T04:09:42;6.88;;;5.65;;
28078;SDS011;15388;42.238;24.684;2023-03-01T04:12:07;15.90;;;7.68;;
28078;SDS011;15388;42.238;24.684;2023-03-01T04:14:33;16.17;;;8.52;;
28078;SDS011;15388;42.238;24.684;2023-03-01T04:16:58;13.18;;;7.53;;
28078;SDS011;15388;42.238;24.684;2023-03-01T04:19:23;10.82;;;7.30;;
28078;SDS011;15388;42.238;24.684;2023-03-01T04:21:49;7.63;;;6.55;;
28078;SDS011;15388;42.238;24.684;2023-03-01T04:24:14;6.82;;;5.75;;
28078;SDS011;15388;42.238;24.684;2023-03-01T04:26:39;7.57;;;5.95;;
28078;SDS011;15388;42.238;24.684;2023-03-01T04:29:04;5.85;;;5.10;;
28078;SDS011;15388;42.238;24.684;2023-03-01T04:31:30;7.60;;;5.03;;
28078;SDS011;15388;42.238;24.684;2023-03-01T04:33:55;13.65;;;5.88;;
28078;SDS011;15388;42.238;24.684;2023-03-01T04:36:22;11.15;;;5.00;;
28078;SDS011;15388;42.238;24.684;2023-03-01T04:38:47;7.55;;;5.38;;
28078;SDS011;15388;42.238;24.684;2023-03-01T04:41:14;6.63;;;4.85;;
28078;SDS011;15388;42.238;24.684;2023-03-01T04:43:39;7.03;;;5.18;;
28078;SDS011;15388;42.238;24.684;2023-03-01T04:46:06;5.40;;;4.38;;
28078;SDS011;15388;42.238;24.684;2023-03-01T04:48:33;17.15;;;7.90;;
28078;SDS011;15388;42.238;24.684;2023-03-01T04:50:59;8.05;;;5.05;;
28078;SDS011;15388;42.238;24.684;2023-03-01T04:53:25;5.10;;;4.17;;
28078;SDS011;15388;42.238;24.684;2023-03-01T04:55:50;6.35;;;5.22;;
28078;SDS011;15388;42.238;24.684;2023-03-01T04:58:17;7.30;;;6.10;;
28078;SDS011;15388;42.238;24.684;2023-03-01T05:00:42;7.88;;;6.78;;
28078;SDS011;15388;42.238;24.684;2023-03-01T05:03:08;7.03;;;5.53;;
28078;SDS011;15388;42.238;24.684;2023-03-01T05:05:35;10.52;;;4.85;;
28078;SDS011;15388;42.238;24.684;2023-03-01T05:08:02;6.15;;;5.45;;
28078;SDS011;15388;42.238;24.684;2023-03-01T05:10:28;7.55;;;6.65;;
28078;SDS011;15388;42.238;24.684;2023-03-01T05:12:54;5.65;;;4.93;;
28078;SDS011;15388;42.238;24.684;2023-03-01T05:15:22;10.35;;;7.60;;
28078;SDS011;15388;42.238;24.684;2023-03-01T05:17:50;9.55;;;7.53;;
28078;SDS011;15388;42.238;24.684;2023-03-01T05:20:16;10.48;;;8.10;;
28078;SDS011;15388;42.238;24.684;2023-03-01T05:22:41;13.90;;;11.07;;
28078;SDS011;15388;42.238;24.684;2023-03-01T05:25:07;15.43;;;10.48;;
28078;SDS011;15388;42.238;24.684;2023-03-01T05:27:32;16.13;;;13.13;;
28078;SDS011;15388;42.238;24.684;2023-03-01T05:29:58;11.38;;;9.38;;
28078;SDS011;15388;42.238;24.684;2023-03-01T05:32:23;9.68;;;8.77;;
28078;SDS011;15388;42.238;24.684;2023-03-01T05:34:48;10.05;;;9.07;;
28078;SDS011;15388;42.238;24.684;2023-03-01T05:37:14;7.90;;;7.10;;
28078;SDS011;15388;42.238;24.684;2023-03-01T05:39:39;10.50;;;9.02;;
28078;SDS011;15388;42.238;24.684;2023-03-01T05:42:09;7.47;;;4.88;;
28078;SDS011;15388;42.238;24.684;2023-03-01T05:44:35;4.85;;;4.30;;
28078;SDS011;15388;42.238;24.684;2023-03-01T05:47:00;6.05;;;4.53;;
28078;SDS011;15388;42.238;24.684;2023-03-01T05:49:26;5.35;;;4.55;;
28078;SDS011;15388;42.238;24.684;2023-03-01T05:51:52;9.38;;;4.90;;
28078;SDS011;15388;42.238;24.684;2023-03-01T05:54:17;9.45;;;6.90;;
28078;SDS011;15388;42.238;24.684;2023-03-01T05:56:43;11.45;;;7.93;;
28078;SDS011;15388;42.238;24.684;2023-03-01T05:59:08;13.13;;;8.57;;
28078;SDS011;15388;42.238;24.684;2023-03-01T06:01:34;11.32;;;7.53;;
28078;SDS011;15388;42.238;24.684;2023-03-01T06:04:00;12.43;;;9.18;;
28078;SDS011;15388;42.238;24.684;2023-03-01T06:06:25;22.60;;;17.27;;
28078;SDS011;15388;42.238;24.684;2023-03-01T06:08:51;9.32;;;7.40;;
28078;SDS011;15388;42.238;24.684;2023-03-01T06:11:17;9.88;;;7.10;;
28078;SDS011;15388;42.238;24.684;2023-03-01T06:13:42;8.25;;;6.53;;
28078;SDS011;15388;42.238;24.684;2023-03-01T06:16:08;10.70;;;8.35;;
28078;SDS011;15388;42.238;24.684;2023-03-01T06:18:33;11.82;;;9.88;;
28078;SDS011;15388;42.238;24.684;2023-03-01T06:20:58;9.30;;;6.80;;
28078;SDS011;15388;42.238;24.684;2023-03-01T06:23:24;11.02;;;5.20;;
28078;SDS011;15388;42.238;24.684;2023-03-01T06:25:49;7.90;;;4.50;;
28078;SDS011;15388;42.238;24.684;2023-03-01T06:28:15;9.95;;;5.57;;
28078;SDS011;15388;42.238;24.684;2023-03-01T06:30:40;14.90;;;11.90;;
28078;SDS011;15388;42.238;24.684;2023-03-01T06:33:06;10.77;;;5.65;;
28078;SDS011;15388;42.238;24.684;2023-03-01T06:35:31;8.38;;;5.72;;
28078;SDS011;15388;42.238;24.684;2023-03-01T06:37:57;17.38;;;13.05;;
28078;SDS011;15388;42.238;24.684;2023-03-01T06:40:22;12.43;;;11.18;;
28078;SDS011;15388;42.238;24.684;2023-03-01T06:42:48;12.43;;;6.90;;
28078;SDS011;15388;42.238;24.684;2023-03-01T06:45:14;8.90;;;6.45;;
28078;SDS011;15388;42.238;24.684;2023-03-01T06:47:39;7.25;;;5.95;;
28078;SDS011;15388;42.238;24.684;2023-03-01T06:50:05;12.00;;;7.18;;
28078;SDS011;15388;42.238;24.684;2023-03-01T06:52:30;11.65;;;6.88;;
28078;SDS011;15388;42.238;24.684;2023-03-01T06:54:56;9.00;;;5.70;;
28078;SDS011;15388;42.238;24.684;2023-03-01T06:57:21;32.20;;;20.65;;
28078;SDS011;15388;42.238;24.684;2023-03-01T06:59:47;13.50;;;7.72;;
28078;SDS011;15388;42.238;24.684;2023-03-01T07:02:13;20.02;;;12.13;;
28078;SDS011;15388;42.238;24.684;2023-03-01T07:04:38;13.02;;;9.18;;
28078;SDS011;15388;42.238;24.684;2023-03-01T07:07:04;11.80;;;7.28;;
28078;SDS011;15388;42.238;24.684;2023-03-01T07:09:29;10.50;;;5.85;;
28078;SDS011;15388;42.238;24.684;2023-03-01T07:11:55;10.90;;;5.22;;
28078;SDS011;15388;42.238;24.684;2023-03-01T07:14:21;5.30;;;3.97;;
28078;SDS011;15388;42.238;24.684;2023-03-01T07:16:50;5.93;;;3.72;;
28078;SDS011;15388;42.238;24.684;2023-03-01T07:19:15;6.03;;;4.95;;
28078;SDS011;15388;42.238;24.684;2023-03-01T07:21:40;7.07;;;4.50;;
28078;SDS011;15388;42.238;24.684;2023-03-01T07:24:06;45.42;;;21.98;;
28078;SDS011;15388;42.238;24.684;2023-03-01T07:26:32;13.73;;;8.20;;
28078;SDS011;15388;42.238;24.684;2023-03-01T07:29:00;11.73;;;7.63;;
28078;SDS011;15388;42.238;24.684;2023-03-01T07:31:26;11.63;;;8.50;;
28078;SDS011;15388;42.238;24.684;2023-03-01T07:33:53;5.57;;;4.95;;
28078;SDS011;15388;42.238;24.684;2023-03-01T07:36:18;5.30;;;4.32;;
28078;SDS011;15388;42.238;24.684;2023-03-01T07:38:44;22.85;;;19.70;;
28078;SDS011;15388;42.238;24.684;2023-03-01T07:41:09;10.52;;;7.80;;
28078;SDS011;15388;42.238;24.684;2023-03-01T07:43:34;7.68;;;5.57;;
28078;SDS011;15388;42.238;24.684;2023-03-01T07:46:03;5.28;;;4.57;;
28078;SDS011;15388;42.238;24.684;2023-03-01T07:48:29;7.45;;;5.05;;
28078;SDS011;15388;42.238;24.684;2023-03-01T07:50:54;21.42;;;10.85;;
28078;SDS011;15388;42.238;24.684;2023-03-01T07:53:19;12.75;;;6.57;;
28078;SDS011;15388;42.238;24.684;2023-03-01T07:55:46;14.93;;;8.57;;
28078;SDS011;15388;42.238;24.684;2023-03-01T07:58:12;6.97;;;6.28;;
28078;SDS011;15388;42.238;24.684;2023-03-01T08:00:37;7.18;;;5.53;;
28078;SDS011;15388;42.238;24.684;2023-03-01T08:03:02;6.50;;;4.38;;
28078;SDS011;15388;42.238;24.684;2023-03-01T08:05:28;5.70;;;4.97;;
28078;SDS011;15388;42.238;24.684;2023-03-01T08:07:53;7.50;;;3.50;;
28078;SDS011;15388;42.238;24.684;2023-03-01T08:10:19;3.70;;;2.60;;
28078;SDS011;15388;42.238;24.684;2023-03-01T08:12:44;5.10;;;2.95;;
28078;SDS011;15388;42.238;24.684;2023-03-01T08:15:10;3.63;;;3.05;;
28078;SDS011;15388;42.238;24.684;2023-03-01T08:17:35;8.75;;;5.53;;
28078;SDS011;15388;42.238;24.684;2023-03-01T08:20:00;7.63;;;5.18;;
28078;SDS011;15388;42.238;24.684;2023-03-01T08:22:26;7.40;;;4.93;;
28078;SDS011;15388;42.238;24.684;2023-03-01T08:24:51;11.18;;;6.03;;
28078;SDS011;15388;42.238;24.684;2023-03-01T08:27:17;9.25;;;5.80;;
28078;SDS011;15388;42.238;24.684;2023-03-01T08:29:42;6.05;;;5.32;;
28078;SDS011;15388;42.238;24.684;2023-03-01T08:32:08;7.47;;;5.38;;
28078;SDS011;15388;42.238;24.684;2023-03-01T08:34:33;13.45;;;6.30;;
28078;SDS011;15388;42.238;24.684;2023-03-01T08:37:01;8.38;;;5.40;;
28078;SDS011;15388;42.238;24.684;2023-03-01T08:39:27;11.20;;;5.83;;
28078;SDS011;15388;42.238;24.684;2023-03-01T08:41:52;5.68;;;3.85;;
28078;SDS011;15388;42.238;24.684;2023-03-01T08:44:18;7.00;;;4.20;;
28078;SDS011;15388;42.238;24.684;2023-03-01T08:46:43;13.13;;;9.00;;
28078;SDS011;15388;42.238;24.684;2023-03-01T08:49:13;4.50;;;3.97;;
28078;SDS011;15388;42.238;24.684;2023-03-01T08:51:39;10.77;;;6.05;;
28078;SDS011;15388;42.238;24.684;2023-03-01T08:54:05;8.88;;;7.22;;
28078;SDS011;15388;42.238;24.684;2023-03-01T08:56:31;5.85;;;4.22;;
28078;SDS011;15388;42.238;24.684;2023-03-01T08:58:57;8.43;;;4.15;;
28078;SDS011;15388;42.238;24.684;2023-03-01T09:01:22;10.63;;;5.30;;
28078;SDS011;15388;42.238;24.684;2023-03-01T09:03:47;8.95;;;5.10;;
28078;SDS011;15388;42.238;24.684;2023-03-01T09:06:13;7.70;;;5.30;;
28078;SDS011;15388;42.238;24.684;2023-03-01T09:08:42;5.55;;;4.30;;
28078;SDS011;15388;42.238;24.684;2023-03-01T09:11:08;6.22;;;4.10;;
28078;SDS011;15388;42.238;24.684;2023-03-01T09:13:34;15.17;;;8.73;;
28078;SDS011;15388;42.238;24.684;2023-03-01T09:16:03;3.20;;;2.17;;
28078;SDS011;15388;42.238;24.684;2023-03-01T09:18:29;8.93;;;2.95;;
28078;SDS011;15388;42.238;24.684;2023-03-01T09:21:07;8.77;;;5.85;;
28078;SDS011;15388;42.238;24.684;2023-03-01T09:23:36;4.72;;;3.72;;
28078;SDS011;15388;42.238;24.684;2023-03-01T09:26:04;5.68;;;4.03;;
28078;SDS011;15388;42.238;24.684;2023-03-01T09:28:29;3.22;;;2.92;;
28078;SDS011;15388;42.238;24.684;2023-03-01T09:30:57;4.40;;;2.80;;
28078;SDS011;15388;42.238;24.684;2023-03-01T09:33:22;8.23;;;4.18;;
28078;SDS011;15388;42.238;24.684;2023-03-01T09:35:48;11.20;;;4.40;;
28078;SDS011;15388;42.238;24.684;2023-03-01T09:38:13;6.13;;;4.25;;
28078;SDS011;15388;42.238;24.684;2023-03-01T09:40:42;8.02;;;4.20;;
28078;SDS011;15388;42.238;24.684;2023-03-01T09:43:13;10.80;;;6.15;;
28078;SDS011;15388;42.238;24.684;2023-03-01T09:45:41;3.92;;;3.00;;
28078;SDS011;15388;42.238;24.684;2023-03-01T09:48:11;3.20;;;2.90;;
28078;SDS011;15388;42.238;24.684;2023-03-01T09:50:38;3.83;;;3.05;;
28078;SDS011;15388;42.238;24.684;2023-03-01T09:58:28;7.63;;;3.72;;
28078;SDS011;15388;42.238;24.684;2023-03-01T10:00:49;7.63;;;3.65;;
28078;SDS011;15388;42.238;24.684;2023-03-01T10:05:55;7.53;;;5.90;;
28078;SDS011;15388;42.238;24.684;2023-03-01T10:08:27;10.40;;;7.40;;
28078;SDS011;15388;42.238;24.684;2023-03-01T10:10:55;10.60;;;5.35;;
28078;SDS011;15388;42.238;24.684;2023-03-01T10:15:56;9.07;;;6.60;;
28078;SDS011;15388;42.238;24.684;2023-03-01T10:18:26;6.15;;;4.80;;
28078;SDS011;15388;42.238;24.684;2023-03-01T10:23:17;7.13;;;4.60;;
28078;SDS011;15388;42.238;24.684;2023-03-01T10:28:18;5.82;;;3.42;;
28078;SDS011;15388;42.238;24.684;2023-03-01T10:30:45;3.40;;;2.33;;
28078;SDS011;15388;42.238;24.684;2023-03-01T10:33:22;3.67;;;2.78;;
28078;SDS011;15388;42.238;24.684;2023-03-01T10:35:48;4.13;;;3.45;;
28078;SDS011;15388;42.238;24.684;2023-03-01T10:38:14;4.60;;;2.90;;
28078;SDS011;15388;42.238;24.684;2023-03-01T10:46:30;14.88;;;7.55;;
28078;SDS011;15388;42.238;24.684;2023-03-01T10:51:39;9.63;;;5.95;;
28078;SDS011;15388;42.238;24.684;2023-03-01T10:54:04;8.27;;;5.70;;
28078;SDS011;15388;42.238;24.684;2023-03-01T10:56:32;5.68;;;4.32;;
28078;SDS011;15388;42.238;24.684;2023-03-01T10:59:18;5.28;;;3.35;;
28078;SDS011;15388;42.238;24.684;2023-03-01T11:01:44;4.35;;;3.80;;
28078;SDS011;15388;42.238;24.684;2023-03-01T11:04:11;3.42;;;2.72;;
28078;SDS011;15388;42.238;24.684;2023-03-01T11:06:39;3.00;;;2.70;;
28078;SDS011;15388;42.238;24.684;2023-03-01T11:11:40;4.63;;;3.20;;
28078;SDS011;15388;42.238;24.684;2023-03-01T11:14:15;6.75;;;3.65;;
28078;SDS011;15388;42.238;24.684;2023-03-01T11:16:42;2.85;;;2.03;;
28078;SDS011;15388;42.238;24.684;2023-03-01T11:21:34;4.50;;;2.78;;
28078;SDS011;15388;42.238;24.684;2023-03-01T11:24:00;5.03;;;2.05;;
28078;SDS011;15388;42.238;24.684;2023-03-01T11:26:26;8.25;;;5.75;;
28078;SDS011;15388;42.238;24.684;2023-03-01T11:28:53;15.95;;;8.95;;
28078;SDS011;15388;42.238;24.684;2023-03-01T11:31:21;2.92;;;2.22;;
28078;SDS011;15388;42.238;24.684;2023-03-01T11:39:12;3.30;;;2.75;;
28078;SDS011;15388;42.238;24.684;2023-03-01T11:41:42;2.60;;;1.70;;
28078;SDS011;15388;42.238;24.684;2023-03-01T11:44:18;4.30;;;2.25;;
28078;SDS011;15388;42.238;24.684;2023-03-01T11:49:32;2.72;;;2.45;;
28078;SDS011;15388;42.238;24.684;2023-03-01T12:02:16;8.65;;;6.70;;
28078;SDS011;15388;42.238;24.684;2023-03-01T12:04:53;6.07;;;5.15;;
28078;SDS011;15388;42.238;24.684;2023-03-01T12:07:31;4.15;;;3.40;;
28078;SDS011;15388;42.238;24.684;2023-03-01T12:10:19;3.83;;;2.45;;
28078;SDS011;15388;42.238;24.684;2023-03-01T12:15:58;7.97;;;5.95;;
28078;SDS011;15388;42.238;24.684;2023-03-01T12:28:36;7.07;;;5.40;;
28078;SDS011;15388;42.238;24.684;2023-03-01T12:33:33;17.02;;;7.18;;
28078;SDS011;15388;42.238;24.684;2023-03-01T12:38:50;11.65;;;5.75;;
28078;SDS011;15388;42.238;24.684;2023-03-01T12:44:29;3.70;;;2.90;;
28078;SDS011;15388;42.238;24.684;2023-03-01T12:49:55;7.07;;;4.15;;
28078;SDS011;15388;42.238;24.684;2023-03-01T12:55:07;6.72;;;4.35;;
28078;SDS011;15388;42.238;24.684;2023-03-01T12:57:36;8.73;;;4.25;;
28078;SDS011;15388;42.238;24.684;2023-03-01T13:02:52;10.25;;;5.85;;
28078;SDS011;15388;42.238;24.684;2023-03-01T13:05:27;38.17;;;14.73;;
28078;SDS011;15388;42.238;24.684;2023-03-01T13:10:43;25.95;;;10.57;;
28078;SDS011;15388;42.238;24.684;2023-03-01T13:13:13;85.25;;;24.48;;
28078;SDS011;15388;42.238;24.684;2023-03-01T13:15:39;50.78;;;17.25;;
28078;SDS011;15388;42.238;24.684;2023-03-01T13:25:33;26.00;;;12.57;;
28078;SDS011;15388;42.238;24.684;2023-03-01T13:30:42;8.32;;;5.20;;
28078;SDS011;15388;42.238;24.684;2023-03-01T13:35:48;7.35;;;4.75;;
28078;SDS011;15388;42.238;24.684;2023-03-01T13:40:58;6.35;;;3.55;;
28078;SDS011;15388;42.238;24.684;2023-03-01T13:43:31;7.00;;;4.88;;
28078;SDS011;15388;42.238;24.684;2023-03-01T13:45:57;5.97;;;3.03;;
28078;SDS011;15388;42.238;24.684;2023-03-01T13:48:24;7.03;;;4.20;;
28078;SDS011;15388;42.238;24.684;2023-03-01T13:51:00;7.97;;;6.30;;
28078;SDS011;15388;42.238;24.684;2023-03-01T13:53:28;8.45;;;4.75;;
28078;SDS011;15388;42.238;24.684;2023-03-01T13:55:56;7.78;;;3.55;;
28078;SDS011;15388;42.238;24.684;2023-03-01T14:00:55;6.75;;;4.88;;
28078;SDS011;15388;42.238;24.684;2023-03-01T14:03:20;7.28;;;5.10;;
28078;SDS011;15388;42.238;24.684;2023-03-01T14:08:24;11.32;;;5.88;;
28078;SDS011;15388;42.238;24.684;2023-03-01T14:18:41;10.23;;;6.80;;
28078;SDS011;15388;42.238;24.684;2023-03-01T14:21:09;10.73;;;7.57;;
28078;SDS011;15388;42.238;24.684;2023-03-01T14:23:37;12.65;;;8.82;;
28078;SDS011;15388;42.238;24.684;2023-03-01T14:26:05;10.95;;;7.63;;
28078;SDS011;15388;42.238;24.684;2023-03-01T14:28:30;10.02;;;5.90;;
28078;SDS011;15388;42.238;24.684;2023-03-01T14:30:58;16.90;;;12.20;;
28078;SDS011;15388;42.238;24.684;2023-03-01T14:33:32;15.65;;;10.35;;
28078;SDS011;15388;42.238;24.684;2023-03-01T14:36:05;14.43;;;10.05;;
28078;SDS011;15388;42.238;24.684;2023-03-01T14:38:38;10.38;;;7.57;;
28078;SDS011;15388;42.238;24.684;2023-03-01T14:41:11;7.68;;;6.07;;
28078;SDS011;15388;42.238;24.684;2023-03-01T14:43:38;15.50;;;7.40;;
28078;SDS011;15388;42.238;24.684;2023-03-01T14:46:06;11.98;;;7.90;;
28078;SDS011;15388;42.238;24.684;2023-03-01T14:48:31;16.98;;;7.97;;
28078;SDS011;15388;42.238;24.684;2023-03-01T14:50:57;18.05;;;10.02;;
28078;SDS011;15388;42.238;24.684;2023-03-01T14:53:23;17.75;;;8.93;;
28078;SDS011;15388;42.238;24.684;2023-03-01T14:55:53;34.00;;;20.00;;
28078;SDS011;15388;42.238;24.684;2023-03-01T14:58:19;16.50;;;8.95;;
28078;SDS011;15388;42.238;24.684;2023-03-01T15:00:48;15.38;;;8.25;;
28078;SDS011;15388;42.238;24.684;2023-03-01T15:03:16;16.02;;;10.35;;
28078;SDS011;15388;42.238;24.684;2023-03-01T15:05:43;17.83;;;9.18;;
28078;SDS011;15388;42.238;24.684;2023-03-01T15:08:15;16.40;;;8.75;;
28078;SDS011;15388;42.238;24.684;2023-03-01T15:10:54;19.48;;;11.70;;
28078;SDS011;15388;42.238;24.684;2023-03-01T15:13:23;24.58;;;14.48;;
28078;SDS011;15388;42.238;24.684;2023-03-01T15:15:50;15.48;;;12.02;;
28078;SDS011;15388;42.238;24.684;2023-03-01T15:18:25;17.40;;;10.70;;
28078;SDS011;15388;42.238;24.684;2023-03-01T15:20:51;14.60;;;8.85;;
28078;SDS011;15388;42.238;24.684;2023-03-01T15:23:24;15.35;;;8.88;;
28078;SDS011;15388;42.238;24.684;2023-03-01T15:25:50;13.30;;;8.05;;
28078;SDS011;15388;42.238;24.684;2023-03-01T15:28:31;6.95;;;5.28;;
28078;SDS011;15388;42.238;24.684;2023-03-01T15:31:00;10.07;;;6.82;;
28078;SDS011;15388;42.238;24.684;2023-03-01T15:33:36;10.32;;;7.00;;
28078;SDS011;15388;42.238;24.684;2023-03-01T15:36:03;8.93;;;6.07;;
28078;SDS011;15388;42.238;24.684;2023-03-01T15:41:03;8.75;;;5.50;;
28078;SDS011;15388;42.238;24.684;2023-03-01T15:43:45;9.75;;;6.43;;
28078;SDS011;15388;42.238;24.684;2023-03-01T15:46:18;14.57;;;7.57;;
28078;SDS011;15388;42.238;24.684;2023-03-01T15:48:48;17.52;;;11.23;;
28078;SDS011;15388;42.238;24.684;2023-03-01T15:51:17;24.67;;;15.68;;
28078;SDS011;15388;42.238;24.684;2023-03-01T15:53:44;14.05;;;9.55;;
28078;SDS011;15388;42.238;24.684;2023-03-01T15:56:11;23.77;;;16.10;;
28078;SDS011;15388;42.238;24.684;2023-03-01T15:58:36;14.45;;;11.70;;
28078;SDS011;15388;42.238;24.684;2023-03-01T16:01:01;10.43;;;7.55;;
28078;SDS011;15388;42.238;24.684;2023-03-01T16:03:27;10.60;;;6.95;;
28078;SDS011;15388;42.238;24.684;2023-03-01T16:05:53;9.30;;;7.07;;
28078;SDS011;15388;42.238;24.684;2023-03-01T16:08:18;9.77;;;5.90;;
28078;SDS011;15388;42.238;24.684;2023-03-01T16:10:44;11.00;;;7.00;;
28078;SDS011;15388;42.238;24.684;2023-03-01T16:13:10;19.33;;;14.63;;
28078;SDS011;15388;42.238;24.684;2023-03-01T16:15:36;23.80;;;14.05;;
28078;SDS011;15388;42.238;24.684;2023-03-01T16:18:03;26.13;;;14.63;;
28078;SDS011;15388;42.238;24.684;2023-03-01T16:20:29;20.38;;;11.02;;
28078;SDS011;15388;42.238;24.684;2023-03-01T16:23:00;19.35;;;11.60;;
28078;SDS011;15388;42.238;24.684;2023-03-01T16:25:25;16.20;;;9.63;;